sensor_id;sensor_type;location;lat;lon;timestamp;temperature;humidity
37410;DHT22;23275;48.914;12.566;2022-12-18T00:01:18;-3.50;99.90
37410;DHT22;23275;48.914;12.566;2022-12-18T00:03:44;-3.50;99.90
37410;DHT22;23275;48.914;12.566;2022-12-18T00:06:10;-3.50;99.90
37410;DHT22;23275;48.914;12.566;2022-12-18T00:08:35;-3.50;99.90
37410;DHT22;23275;48.914;12.566;2022-12-18T00:11:05;-3.50;99.90
37410;DHT22;23275;48.914;12.566;2022-12-18T00:13:31;-3.50;99.90
37410;DHT22;23275;48.914;12.566;2022-12-18T00:16:02;-3.50;99.90
37410;DHT22;23275;48.914;12.566;2022-12-18T00:18:27;-3.50;99.90
37410;DHT22;23275;48.914;12.566;2022-12-18T00:20:53;-3.50;99.90
37410;DHT22;23275;48.914;12.566;2022-12-18T00:23:18;-3.60;99.90
37410;DHT22;23275;48.914;12.566;2022-12-18T00:25:44;-3.50;99.90
37410;DHT22;23275;48.914;12.566;2022-12-18T00:28:09;-3.50;99.90
37410;DHT22;23275;48.914;12.566;2022-12-18T00:30:35;-3.50;99.90
37410;DHT22;23275;48.914;12.566;2022-12-18T00:33:00;-3.50;99.90
37410;DHT22;23275;48.914;12.566;2022-12-18T00:35:26;-3.50;99.90
37410;DHT22;23275;48.914;12.566;2022-12-18T00:37:51;-3.50;99.90
37410;DHT22;23275;48.914;12.566;2022-12-18T00:40:17;-3.50;99.90
37410;DHT22;23275;48.914;12.566;2022-12-18T00:42:42;-3.50;99.90
37410;DHT22;23275;48.914;12.566;2022-12-18T00:45:29;-3.60;99.90
37410;DHT22;23275;48.914;12.566;2022-12-18T00:47:55;-3.50;99.90
37410;DHT22;23275;48.914;12.566;2022-12-18T00:50:21;-3.50;99.90
37410;DHT22;23275;48.914;12.566;2022-12-18T00:52:47;-3.50;99.90
37410;DHT22;23275;48.914;12.566;2022-12-18T00:55:13;-3.50;99.90
37410;DHT22;23275;48.914;12.566;2022-12-18T00:57:39;-3.50;99.90
37410;DHT22;23275;48.914;12.566;2022-12-18T01:00:06;-3.50;99.90
37410;DHT22;23275;48.914;12.566;2022-12-18T01:02:32;-3.50;99.90
37410;DHT22;23275;48.914;12.566;2022-12-18T01:04:58;-3.60;99.90
37410;DHT22;23275;48.914;12.566;2022-12-18T01:07:23;-3.60;99.90
37410;DHT22;23275;48.914;12.566;2022-12-18T01:09:49;-3.60;99.90
37410;DHT22;23275;48.914;12.566;2022-12-18T01:12:14;-3.60;99.90
37410;DHT22;23275;48.914;12.566;2022-12-18T01:14:40;-3.50;99.90
37410;DHT22;23275;48.914;12.566;2022-12-18T01:17:05;-3.60;99.90
37410;DHT22;23275;48.914;12.566;2022-12-18T01:19:31;-3.60;99.90
37410;DHT22;23275;48.914;12.566;2022-12-18T01:21:57;-3.60;99.90
37410;DHT22;23275;48.914;12.566;2022-12-18T01:24:22;-3.60;99.90
37410;DHT22;23275;48.914;12.566;2022-12-18T01:26:48;-3.60;99.90
37410;DHT22;23275;48.914;12.566;2022-12-18T01:29:14;-3.60;99.90
37410;DHT22;23275;48.914;12.566;2022-12-18T01:31:39;-3.60;99.90
37410;DHT22;23275;48.914;12.566;2022-12-18T01:34:05;-3.70;99.90
37410;DHT22;23275;48.914;12.566;2022-12-18T01:36:36;-3.70;99.90
37410;DHT22;23275;48.914;12.566;2022-12-18T01:39:09;-3.70;99.90
37410;DHT22;23275;48.914;12.566;2022-12-18T01:41:35;-3.80;99.90
37410;DHT22;23275;48.914;12.566;2022-12-18T01:47:33;-3.70;99.90
37410;DHT22;23275;48.914;12.566;2022-12-18T01:50:25;-3.80;99.90
37410;DHT22;23275;48.914;12.566;2022-12-18T01:53:02;-3.70;99.90
37410;DHT22;23275;48.914;12.566;2022-12-18T01:55:32;-3.80;99.90
37410;DHT22;23275;48.914;12.566;2022-12-18T01:57:59;-3.80;99.90
37410;DHT22;23275;48.914;12.566;2022-12-18T02:00:26;-3.90;99.90
37410;DHT22;23275;48.914;12.566;2022-12-18T02:02:52;-3.90;99.90
37410;DHT22;23275;48.914;12.566;2022-12-18T02:05:42;-3.90;99.90
37410;DHT22;23275;48.914;12.566;2022-12-18T02:08:20;-3.90;99.90
37410;DHT22;23275;48.914;12.566;2022-12-18T02:11:07;-3.90;99.90
37410;DHT22;23275;48.914;12.566;2022-12-18T02:22:20;-3.90;99.90
37410;DHT22;23275;48.914;12.566;2022-12-18T02:27:33;-4.00;99.90
37410;DHT22;23275;48.914;12.566;2022-12-18T02:30:02;-3.90;99.90
37410;DHT22;23275;48.914;12.566;2022-12-18T02:32:32;-3.90;99.90
37410;DHT22;23275;48.914;12.566;2022-12-18T02:34:59;-3.90;99.90
37410;DHT22;23275;48.914;12.566;2022-12-18T02:37:27;-4.00;99.90
37410;DHT22;23275;48.914;12.566;2022-12-18T02:39:55;-4.00;99.90
37410;DHT22;23275;48.914;12.566;2022-12-18T02:42:22;-4.00;99.90
37410;DHT22;23275;48.914;12.566;2022-12-18T02:44:50;-4.00;99.90
37410;DHT22;23275;48.914;12.566;2022-12-18T02:47:18;-4.10;99.90
37410;DHT22;23275;48.914;12.566;2022-12-18T02:55:43;-4.10;99.90
37410;DHT22;23275;48.914;12.566;2022-12-18T02:58:14;-4.20;99.90
37410;DHT22;23275;48.914;12.566;2022-12-18T03:00:58;-4.20;99.90
37410;DHT22;23275;48.914;12.566;2022-12-18T03:03:51;-4.20;99.90
37410;DHT22;23275;48.914;12.566;2022-12-18T03:06:32;-4.20;99.90
37410;DHT22;23275;48.914;12.566;2022-12-18T03:09:01;-4.20;99.90
37410;DHT22;23275;48.914;12.566;2022-12-18T03:11:30;-4.20;99.90
37410;DHT22;23275;48.914;12.566;2022-12-18T03:14:17;-4.20;99.90
37410;DHT22;23275;48.914;12.566;2022-12-18T03:16:45;-4.20;99.90
37410;DHT22;23275;48.914;12.566;2022-12-18T03:19:17;-4.20;99.90
37410;DHT22;23275;48.914;12.566;2022-12-18T03:21:45;-4.20;99.90
37410;DHT22;23275;48.914;12.566;2022-12-18T03:24:15;-4.20;99.90
37410;DHT22;23275;48.914;12.566;2022-12-18T03:26:44;-4.20;99.90
37410;DHT22;23275;48.914;12.566;2022-12-18T03:29:36;-4.30;99.90
37410;DHT22;23275;48.914;12.566;2022-12-18T03:32:09;-4.20;99.90
37410;DHT22;23275;48.914;12.566;2022-12-18T03:34:38;-4.20;99.90
37410;DHT22;23275;48.914;12.566;2022-12-18T03:37:05;-4.10;99.90
37410;DHT22;23275;48.914;12.566;2022-12-18T03:39:32;-4.10;99.90
37410;DHT22;23275;48.914;12.566;2022-12-18T03:42:20;-4.10;99.90
37410;DHT22;23275;48.914;12.566;2022-12-18T03:47:34;-4.20;99.90
37410;DHT22;23275;48.914;12.566;2022-12-18T03:53:25;-4.30;99.90
37410;DHT22;23275;48.914;12.566;2022-12-18T03:55:55;-4.40;99.90
37410;DHT22;23275;48.914;12.566;2022-12-18T03:58:24;-4.40;99.90
37410;DHT22;23275;48.914;12.566;2022-12-18T04:00:52;-4.50;99.90
37410;DHT22;23275;48.914;12.566;2022-12-18T04:03:20;-4.60;99.90
37410;DHT22;23275;48.914;12.566;2022-12-18T04:05:49;-4.60;99.90
37410;DHT22;23275;48.914;12.566;2022-12-18T04:08:15;-4.60;99.90
37410;DHT22;23275;48.914;12.566;2022-12-18T04:10:41;-4.70;99.90
37410;DHT22;23275;48.914;12.566;2022-12-18T04:13:07;-4.70;99.90
37410;DHT22;23275;48.914;12.566;2022-12-18T04:15:34;-4.70;99.90
37410;DHT22;23275;48.914;12.566;2022-12-18T04:18:01;-4.70;99.90
37410;DHT22;23275;48.914;12.566;2022-12-18T04:20:27;-4.70;99.90
37410;DHT22;23275;48.914;12.566;2022-12-18T04:22:52;-4.80;99.90
37410;DHT22;23275;48.914;12.566;2022-12-18T04:25:18;-4.80;99.90
37410;DHT22;23275;48.914;12.566;2022-12-18T04:27:44;-4.80;99.90
37410;DHT22;23275;48.914;12.566;2022-12-18T04:30:10;-4.90;99.90
37410;DHT22;23275;48.914;12.566;2022-12-18T04:32:35;-4.90;99.90
37410;DHT22;23275;48.914;12.566;2022-12-18T04:35:02;-4.80;99.90
37410;DHT22;23275;48.914;12.566;2022-12-18T04:37:29;-4.90;99.90
37410;DHT22;23275;48.914;12.566;2022-12-18T04:39:55;-4.90;99.90
37410;DHT22;23275;48.914;12.566;2022-12-18T04:42:21;-4.90;99.90
37410;DHT22;23275;48.914;12.566;2022-12-18T04:44:46;-5.00;99.90
37410;DHT22;23275;48.914;12.566;2022-12-18T04:47:12;-4.90;99.90
37410;DHT22;23275;48.914;12.566;2022-12-18T04:49:37;-5.00;99.90
37410;DHT22;23275;48.914;12.566;2022-12-18T04:52:03;-5.00;99.90
37410;DHT22;23275;48.914;12.566;2022-12-18T04:54:28;-4.90;99.90
37410;DHT22;23275;48.914;12.566;2022-12-18T04:56:54;-4.90;99.90
37410;DHT22;23275;48.914;12.566;2022-12-18T04:59:19;-5.00;99.90
37410;DHT22;23275;48.914;12.566;2022-12-18T05:01:45;-5.00;99.90
37410;DHT22;23275;48.914;12.566;2022-12-18T05:04:11;-5.00;99.90
37410;DHT22;23275;48.914;12.566;2022-12-18T05:06:36;-5.00;99.90
37410;DHT22;23275;48.914;12.566;2022-12-18T05:09:02;-5.00;99.90
37410;DHT22;23275;48.914;12.566;2022-12-18T05:11:28;-5.00;99.90
37410;DHT22;23275;48.914;12.566;2022-12-18T05:13:53;-4.90;99.90
37410;DHT22;23275;48.914;12.566;2022-12-18T05:16:20;-4.90;99.90
37410;DHT22;23275;48.914;12.566;2022-12-18T05:18:46;-4.90;99.90
37410;DHT22;23275;48.914;12.566;2022-12-18T05:21:11;-4.90;99.90
37410;DHT22;23275;48.914;12.566;2022-12-18T05:23:37;-4.90;99.90
37410;DHT22;23275;48.914;12.566;2022-12-18T05:26:04;-4.90;99.90
37410;DHT22;23275;48.914;12.566;2022-12-18T05:28:32;-4.90;99.90
37410;DHT22;23275;48.914;12.566;2022-12-18T05:31:01;-4.90;99.90
37410;DHT22;23275;48.914;12.566;2022-12-18T05:33:30;-4.90;99.90
37410;DHT22;23275;48.914;12.566;2022-12-18T05:35:58;-4.90;99.90
37410;DHT22;23275;48.914;12.566;2022-12-18T05:38:30;-5.00;99.90
37410;DHT22;23275;48.914;12.566;2022-12-18T05:40:56;-5.00;99.90
37410;DHT22;23275;48.914;12.566;2022-12-18T05:43:25;-5.00;99.90
37410;DHT22;23275;48.914;12.566;2022-12-18T05:45:52;-5.00;99.90
37410;DHT22;23275;48.914;12.566;2022-12-18T05:48:18;-5.00;99.90
37410;DHT22;23275;48.914;12.566;2022-12-18T05:50:46;-4.90;99.90
37410;DHT22;23275;48.914;12.566;2022-12-18T05:53:14;-4.90;99.90
37410;DHT22;23275;48.914;12.566;2022-12-18T05:55:41;-4.90;99.90
37410;DHT22;23275;48.914;12.566;2022-12-18T05:58:08;-4.90;99.90
37410;DHT22;23275;48.914;12.566;2022-12-18T06:00:36;-4.90;99.90
37410;DHT22;23275;48.914;12.566;2022-12-18T06:03:05;-4.90;99.90
37410;DHT22;23275;48.914;12.566;2022-12-18T06:05:37;-4.90;99.90
37410;DHT22;23275;48.914;12.566;2022-12-18T06:08:03;-5.00;99.90
37410;DHT22;23275;48.914;12.566;2022-12-18T06:10:29;-4.90;99.90
37410;DHT22;23275;48.914;12.566;2022-12-18T06:12:55;-4.90;99.90
37410;DHT22;23275;48.914;12.566;2022-12-18T06:15:20;-4.90;99.90
37410;DHT22;23275;48.914;12.566;2022-12-18T06:17:46;-4.90;99.90
37410;DHT22;23275;48.914;12.566;2022-12-18T06:20:11;-4.80;99.90
37410;DHT22;23275;48.914;12.566;2022-12-18T06:22:37;-4.80;99.90
37410;DHT22;23275;48.914;12.566;2022-12-18T06:25:03;-4.80;99.90
37410;DHT22;23275;48.914;12.566;2022-12-18T06:27:29;-4.90;99.90
37410;DHT22;23275;48.914;12.566;2022-12-18T06:29:54;-4.80;99.90
37410;DHT22;23275;48.914;12.566;2022-12-18T06:32:20;-4.90;99.90
37410;DHT22;23275;48.914;12.566;2022-12-18T06:34:45;-4.90;99.90
37410;DHT22;23275;48.914;12.566;2022-12-18T06:37:11;-4.90;99.90
37410;DHT22;23275;48.914;12.566;2022-12-18T06:39:36;-5.00;99.90
37410;DHT22;23275;48.914;12.566;2022-12-18T06:42:03;-5.00;99.90
37410;DHT22;23275;48.914;12.566;2022-12-18T06:44:28;-5.00;99.90
37410;DHT22;23275;48.914;12.566;2022-12-18T06:46:54;-5.00;99.90
37410;DHT22;23275;48.914;12.566;2022-12-18T06:49:20;-5.00;99.90
37410;DHT22;23275;48.914;12.566;2022-12-18T06:51:45;-5.00;99.90
37410;DHT22;23275;48.914;12.566;2022-12-18T06:54:11;-5.00;99.90
37410;DHT22;23275;48.914;12.566;2022-12-18T06:56:36;-5.00;99.90
37410;DHT22;23275;48.914;12.566;2022-12-18T06:59:02;-5.00;99.90
37410;DHT22;23275;48.914;12.566;2022-12-18T07:01:27;-4.90;99.90
37410;DHT22;23275;48.914;12.566;2022-12-18T07:03:54;-4.90;99.90
37410;DHT22;23275;48.914;12.566;2022-12-18T07:06:21;-5.00;99.90
37410;DHT22;23275;48.914;12.566;2022-12-18T07:08:49;-5.00;99.90
37410;DHT22;23275;48.914;12.566;2022-12-18T07:11:15;-5.00;99.90
37410;DHT22;23275;48.914;12.566;2022-12-18T07:13:41;-4.90;99.90
37410;DHT22;23275;48.914;12.566;2022-12-18T07:16:14;-4.90;99.90
37410;DHT22;23275;48.914;12.566;2022-12-18T07:18:40;-5.00;99.90
37410;DHT22;23275;48.914;12.566;2022-12-18T07:21:11;-5.00;99.90
37410;DHT22;23275;48.914;12.566;2022-12-18T07:23:37;-4.90;99.90
37410;DHT22;23275;48.914;12.566;2022-12-18T07:26:05;-4.90;99.90
37410;DHT22;23275;48.914;12.566;2022-12-18T07:28:32;-4.90;99.90
37410;DHT22;23275;48.914;12.566;2022-12-18T07:30:58;-4.90;99.90
37410;DHT22;23275;48.914;12.566;2022-12-18T07:33:27;-4.90;99.90
37410;DHT22;23275;48.914;12.566;2022-12-18T07:35:52;-4.90;99.90
37410;DHT22;23275;48.914;12.566;2022-12-18T07:38:18;-4.80;99.90
37410;DHT22;23275;48.914;12.566;2022-12-18T07:40:43;-4.80;99.90
37410;DHT22;23275;48.914;12.566;2022-12-18T07:43:09;-4.80;99.90
37410;DHT22;23275;48.914;12.566;2022-12-18T07:45:34;-4.90;99.90
37410;DHT22;23275;48.914;12.566;2022-12-18T07:48:00;-4.90;99.90
37410;DHT22;23275;48.914;12.566;2022-12-18T07:50:25;-4.80;99.90
37410;DHT22;23275;48.914;12.566;2022-12-18T07:52:51;-4.80;99.90
37410;DHT22;23275;48.914;12.566;2022-12-18T07:55:16;-4.90;99.90
37410;DHT22;23275;48.914;12.566;2022-12-18T07:57:42;-4.80;99.90
37410;DHT22;23275;48.914;12.566;2022-12-18T08:00:08;-4.90;99.90
37410;DHT22;23275;48.914;12.566;2022-12-18T08:02:34;-4.90;99.90
37410;DHT22;23275;48.914;12.566;2022-12-18T08:04:59;-4.90;99.90
37410;DHT22;23275;48.914;12.566;2022-12-18T08:07:25;-4.90;99.90
37410;DHT22;23275;48.914;12.566;2022-12-18T08:09:50;-5.00;99.90
37410;DHT22;23275;48.914;12.566;2022-12-18T08:12:16;-5.00;99.90
37410;DHT22;23275;48.914;12.566;2022-12-18T08:14:41;-5.00;99.90
37410;DHT22;23275;48.914;12.566;2022-12-18T08:17:07;-5.00;99.90
37410;DHT22;23275;48.914;12.566;2022-12-18T08:19:33;-5.00;99.90
37410;DHT22;23275;48.914;12.566;2022-12-18T08:21:58;-5.00;99.90
37410;DHT22;23275;48.914;12.566;2022-12-18T08:24:24;-5.00;99.90
37410;DHT22;23275;48.914;12.566;2022-12-18T08:26:49;-4.90;99.90
37410;DHT22;23275;48.914;12.566;2022-12-18T08:29:16;-4.80;99.90
37410;DHT22;23275;48.914;12.566;2022-12-18T08:31:41;-4.80;99.90
37410;DHT22;23275;48.914;12.566;2022-12-18T08:34:07;-4.80;99.90
37410;DHT22;23275;48.914;12.566;2022-12-18T08:36:33;-4.70;99.90
37410;DHT22;23275;48.914;12.566;2022-12-18T08:38:59;-4.60;99.90
37410;DHT22;23275;48.914;12.566;2022-12-18T08:41:24;-4.40;99.90
37410;DHT22;23275;48.914;12.566;2022-12-18T08:43:50;-4.30;99.90
37410;DHT22;23275;48.914;12.566;2022-12-18T08:46:37;-4.30;99.90
37410;DHT22;23275;48.914;12.566;2022-12-18T08:49:04;-4.40;99.90
37410;DHT22;23275;48.914;12.566;2022-12-18T08:51:30;-4.30;99.90
37410;DHT22;23275;48.914;12.566;2022-12-18T08:53:56;-4.20;99.90
37410;DHT22;23275;48.914;12.566;2022-12-18T08:56:22;-4.20;99.90
37410;DHT22;23275;48.914;12.566;2022-12-18T08:58:47;-4.40;99.90
37410;DHT22;23275;48.914;12.566;2022-12-18T09:01:16;-4.60;99.90
37410;DHT22;23275;48.914;12.566;2022-12-18T09:03:41;-4.50;99.90
37410;DHT22;23275;48.914;12.566;2022-12-18T09:06:07;-4.50;99.90
37410;DHT22;23275;48.914;12.566;2022-12-18T09:08:33;-4.30;99.90
37410;DHT22;23275;48.914;12.566;2022-12-18T09:10:59;-4.40;99.90
37410;DHT22;23275;48.914;12.566;2022-12-18T09:13:24;-4.50;99.90
37410;DHT22;23275;48.914;12.566;2022-12-18T09:15:54;-4.40;99.90
37410;DHT22;23275;48.914;12.566;2022-12-18T09:18:21;-4.10;99.90
37410;DHT22;23275;48.914;12.566;2022-12-18T09:20:47;-4.10;99.90
37410;DHT22;23275;48.914;12.566;2022-12-18T09:23:12;-4.10;99.90
37410;DHT22;23275;48.914;12.566;2022-12-18T09:25:39;-4.00;99.90
37410;DHT22;23275;48.914;12.566;2022-12-18T09:28:05;-3.80;99.90
37410;DHT22;23275;48.914;12.566;2022-12-18T09:30:31;-3.90;99.90
37410;DHT22;23275;48.914;12.566;2022-12-18T09:33:00;-3.90;99.90
37410;DHT22;23275;48.914;12.566;2022-12-18T09:35:25;-3.90;99.90
37410;DHT22;23275;48.914;12.566;2022-12-18T09:37:53;-3.80;99.90
37410;DHT22;23275;48.914;12.566;2022-12-18T09:40:21;-3.80;99.90
37410;DHT22;23275;48.914;12.566;2022-12-18T09:43:01;-4.00;99.90
37410;DHT22;23275;48.914;12.566;2022-12-18T09:45:32;-4.00;99.90
37410;DHT22;23275;48.914;12.566;2022-12-18T09:48:04;-4.10;99.90
37410;DHT22;23275;48.914;12.566;2022-12-18T09:50:34;-4.10;99.90
37410;DHT22;23275;48.914;12.566;2022-12-18T09:53:06;-4.10;99.90
37410;DHT22;23275;48.914;12.566;2022-12-18T09:55:41;-4.00;99.90
37410;DHT22;23275;48.914;12.566;2022-12-18T10:00:40;-3.80;99.90
37410;DHT22;23275;48.914;12.566;2022-12-18T10:03:11;-3.90;99.90
37410;DHT22;23275;48.914;12.566;2022-12-18T10:08:37;-4.10;99.90
37410;DHT22;23275;48.914;12.566;2022-12-18T10:14:20;-4.20;99.90
37410;DHT22;23275;48.914;12.566;2022-12-18T10:22:44;-4.10;99.90
37410;DHT22;23275;48.914;12.566;2022-12-18T10:25:34;-4.00;99.90
37410;DHT22;23275;48.914;12.566;2022-12-18T10:28:11;-4.00;99.90
37410;DHT22;23275;48.914;12.566;2022-12-18T10:30:38;-3.90;99.90
37410;DHT22;23275;48.914;12.566;2022-12-18T10:33:04;-3.80;99.90
37410;DHT22;23275;48.914;12.566;2022-12-18T10:35:32;-3.90;99.90
37410;DHT22;23275;48.914;12.566;2022-12-18T10:38:07;-3.90;99.90
37410;DHT22;23275;48.914;12.566;2022-12-18T10:40:51;-3.80;99.90
37410;DHT22;23275;48.914;12.566;2022-12-18T10:43:22;-3.70;99.90
37410;DHT22;23275;48.914;12.566;2022-12-18T10:48:24;-3.80;99.90
37410;DHT22;23275;48.914;12.566;2022-12-18T10:50:51;-3.90;99.90
37410;DHT22;23275;48.914;12.566;2022-12-18T10:53:23;-3.90;99.90
37410;DHT22;23275;48.914;12.566;2022-12-18T10:55:49;-3.70;99.90
37410;DHT22;23275;48.914;12.566;2022-12-18T11:03:39;-3.70;99.90
37410;DHT22;23275;48.914;12.566;2022-12-18T11:06:11;-3.70;99.90
37410;DHT22;23275;48.914;12.566;2022-12-18T11:09:01;-3.60;99.90
37410;DHT22;23275;48.914;12.566;2022-12-18T11:11:27;-3.40;99.90
37410;DHT22;23275;48.914;12.566;2022-12-18T11:16:25;-3.60;99.90
37410;DHT22;23275;48.914;12.566;2022-12-18T11:18:51;-3.50;99.90
37410;DHT22;23275;48.914;12.566;2022-12-18T11:21:17;-3.40;99.90
37410;DHT22;23275;48.914;12.566;2022-12-18T11:23:51;-3.60;99.90
37410;DHT22;23275;48.914;12.566;2022-12-18T11:26:17;-3.60;99.90
37410;DHT22;23275;48.914;12.566;2022-12-18T11:29:07;-3.50;99.90
37410;DHT22;23275;48.914;12.566;2022-12-18T11:31:33;-3.20;99.90
37410;DHT22;23275;48.914;12.566;2022-12-18T11:34:22;-3.10;99.90
37410;DHT22;23275;48.914;12.566;2022-12-18T11:36:52;-3.10;99.90
37410;DHT22;23275;48.914;12.566;2022-12-18T11:39:38;-2.90;99.90
37410;DHT22;23275;48.914;12.566;2022-12-18T11:42:18;-2.40;99.90
37410;DHT22;23275;48.914;12.566;2022-12-18T11:44:49;-2.10;99.90
37410;DHT22;23275;48.914;12.566;2022-12-18T11:50:01;-1.40;99.90
37410;DHT22;23275;48.914;12.566;2022-12-18T11:52:33;-1.20;99.90
37410;DHT22;23275;48.914;12.566;2022-12-18T11:55:10;-1.40;99.90
37410;DHT22;23275;48.914;12.566;2022-12-18T11:57:42;-1.30;99.90
37410;DHT22;23275;48.914;12.566;2022-12-18T12:00:16;-1.40;99.90
37410;DHT22;23275;48.914;12.566;2022-12-18T12:05:46;-1.40;99.90
37410;DHT22;23275;48.914;12.566;2022-12-18T12:18:52;-1.30;99.90
37410;DHT22;23275;48.914;12.566;2022-12-18T12:24:09;-1.40;99.90
37410;DHT22;23275;48.914;12.566;2022-12-18T12:32:42;-1.50;99.90
37410;DHT22;23275;48.914;12.566;2022-12-18T12:35:29;-1.60;99.90
37410;DHT22;23275;48.914;12.566;2022-12-18T12:38:07;-1.80;99.90
37410;DHT22;23275;48.914;12.566;2022-12-18T12:40:38;-2.10;99.90
37410;DHT22;23275;48.914;12.566;2022-12-18T12:43:27;-2.40;99.90
37410;DHT22;23275;48.914;12.566;2022-12-18T12:45:57;-2.70;99.90
37410;DHT22;23275;48.914;12.566;2022-12-18T12:48:46;-2.80;99.90
37410;DHT22;23275;48.914;12.566;2022-12-18T12:51:34;-2.90;99.90
37410;DHT22;23275;48.914;12.566;2022-12-18T12:54:04;-2.90;99.90
37410;DHT22;23275;48.914;12.566;2022-12-18T12:56:39;-3.00;99.90
37410;DHT22;23275;48.914;12.566;2022-12-18T12:59:23;-2.90;99.90
37410;DHT22;23275;48.914;12.566;2022-12-18T13:07:41;-2.70;99.90
37410;DHT22;23275;48.914;12.566;2022-12-18T13:10:13;-2.70;99.90
37410;DHT22;23275;48.914;12.566;2022-12-18T13:13:14;-2.70;99.90
37410;DHT22;23275;48.914;12.566;2022-12-18T13:15:46;-2.70;99.90
37410;DHT22;23275;48.914;12.566;2022-12-18T13:20:43;-2.80;99.90
37410;DHT22;23275;48.914;12.566;2022-12-18T13:25:49;-2.90;99.90
37410;DHT22;23275;48.914;12.566;2022-12-18T13:28:17;-3.10;99.90
37410;DHT22;23275;48.914;12.566;2022-12-18T13:30:49;-3.00;99.90
37410;DHT22;23275;48.914;12.566;2022-12-18T13:41:00;-3.10;99.90
37410;DHT22;23275;48.914;12.566;2022-12-18T13:43:48;-3.10;99.90
37410;DHT22;23275;48.914;12.566;2022-12-18T13:46:29;-3.00;99.90
37410;DHT22;23275;48.914;12.566;2022-12-18T13:49:15;-3.10;99.90
37410;DHT22;23275;48.914;12.566;2022-12-18T13:51:48;-3.20;99.90
37410;DHT22;23275;48.914;12.566;2022-12-18T13:56:55;-3.30;99.90
37410;DHT22;23275;48.914;12.566;2022-12-18T13:59:37;-3.20;99.90
37410;DHT22;23275;48.914;12.566;2022-12-18T14:02:19;-3.20;99.90
37410;DHT22;23275;48.914;12.566;2022-12-18T14:04:47;-3.20;99.90
37410;DHT22;23275;48.914;12.566;2022-12-18T14:07:19;-3.20;99.90
37410;DHT22;23275;48.914;12.566;2022-12-18T14:09:51;-3.30;99.90
37410;DHT22;23275;48.914;12.566;2022-12-18T14:12:26;-3.40;99.90
37410;DHT22;23275;48.914;12.566;2022-12-18T14:17:49;-3.50;99.90
37410;DHT22;23275;48.914;12.566;2022-12-18T14:20:17;-3.50;99.90
37410;DHT22;23275;48.914;12.566;2022-12-18T14:22:45;-3.60;99.90
37410;DHT22;23275;48.914;12.566;2022-12-18T14:25:28;-3.70;99.90
37410;DHT22;23275;48.914;12.566;2022-12-18T14:28:26;-3.80;99.90
37410;DHT22;23275;48.914;12.566;2022-12-18T14:30:53;-3.90;99.90
37410;DHT22;23275;48.914;12.566;2022-12-18T14:33:27;-4.00;99.90
37410;DHT22;23275;48.914;12.566;2022-12-18T14:36:01;-4.10;99.90
37410;DHT22;23275;48.914;12.566;2022-12-18T14:38:37;-4.10;99.90
37410;DHT22;23275;48.914;12.566;2022-12-18T14:41:13;-4.20;99.90
37410;DHT22;23275;48.914;12.566;2022-12-18T14:43:41;-4.30;99.90
37410;DHT22;23275;48.914;12.566;2022-12-18T14:51:56;-4.50;99.90
37410;DHT22;23275;48.914;12.566;2022-12-18T14:54:23;-4.60;99.90
37410;DHT22;23275;48.914;12.566;2022-12-18T14:57:00;-4.70;99.90
37410;DHT22;23275;48.914;12.566;2022-12-18T14:59:27;-4.70;99.90
37410;DHT22;23275;48.914;12.566;2022-12-18T15:02:01;-4.80;99.90
37410;DHT22;23275;48.914;12.566;2022-12-18T15:07:11;-4.90;99.90
37410;DHT22;23275;48.914;12.566;2022-12-18T15:09:39;-4.90;99.90
37410;DHT22;23275;48.914;12.566;2022-12-18T15:12:28;-5.00;99.90
37410;DHT22;23275;48.914;12.566;2022-12-18T15:14:58;-5.00;99.90
37410;DHT22;23275;48.914;12.566;2022-12-18T15:17:24;-5.10;99.90
37410;DHT22;23275;48.914;12.566;2022-12-18T15:19:52;-5.10;99.90
37410;DHT22;23275;48.914;12.566;2022-12-18T15:22:22;-5.10;99.90
37410;DHT22;23275;48.914;12.566;2022-12-18T15:24:50;-5.20;99.90
37410;DHT22;23275;48.914;12.566;2022-12-18T15:27:32;-5.20;99.90
37410;DHT22;23275;48.914;12.566;2022-12-18T15:30:18;-5.20;99.90
37410;DHT22;23275;48.914;12.566;2022-12-18T15:32:44;-5.20;99.90
37410;DHT22;23275;48.914;12.566;2022-12-18T15:35:22;-5.20;99.90
37410;DHT22;23275;48.914;12.566;2022-12-18T15:37:49;-5.20;99.90
37410;DHT22;23275;48.914;12.566;2022-12-18T15:40:17;-5.20;99.90
37410;DHT22;23275;48.914;12.566;2022-12-18T15:42:43;-5.20;99.90
37410;DHT22;23275;48.914;12.566;2022-12-18T15:45:28;-5.20;99.90
37410;DHT22;23275;48.914;12.566;2022-12-18T15:47:53;-5.10;99.90
37410;DHT22;23275;48.914;12.566;2022-12-18T15:50:19;-5.10;99.90
37410;DHT22;23275;48.914;12.566;2022-12-18T15:52:47;-5.10;99.90
37410;DHT22;23275;48.914;12.566;2022-12-18T15:55:17;-5.10;99.90
37410;DHT22;23275;48.914;12.566;2022-12-18T15:58:02;-5.10;99.90
37410;DHT22;23275;48.914;12.566;2022-12-18T16:00:27;-5.10;99.90
37410;DHT22;23275;48.914;12.566;2022-12-18T16:02:53;-5.10;99.90
37410;DHT22;23275;48.914;12.566;2022-12-18T16:05:20;-5.10;99.90
37410;DHT22;23275;48.914;12.566;2022-12-18T16:07:47;-5.20;99.90
37410;DHT22;23275;48.914;12.566;2022-12-18T16:10:13;-5.20;99.90
37410;DHT22;23275;48.914;12.566;2022-12-18T16:12:39;-5.20;99.90
37410;DHT22;23275;48.914;12.566;2022-12-18T16:15:06;-5.20;99.90
37410;DHT22;23275;48.914;12.566;2022-12-18T16:17:32;-5.30;99.90
37410;DHT22;23275;48.914;12.566;2022-12-18T16:19:57;-5.30;99.90
37410;DHT22;23275;48.914;12.566;2022-12-18T16:22:25;-5.40;99.90
37410;DHT22;23275;48.914;12.566;2022-12-18T16:24:53;-5.50;99.90
37410;DHT22;23275;48.914;12.566;2022-12-18T16:27:20;-5.50;99.90
37410;DHT22;23275;48.914;12.566;2022-12-18T16:29:46;-5.60;99.90
37410;DHT22;23275;48.914;12.566;2022-12-18T16:32:14;-5.60;99.90
37410;DHT22;23275;48.914;12.566;2022-12-18T16:34:40;-5.70;99.90
37410;DHT22;23275;48.914;12.566;2022-12-18T16:37:07;-5.80;99.90
37410;DHT22;23275;48.914;12.566;2022-12-18T16:39:33;-5.90;99.90
37410;DHT22;23275;48.914;12.566;2022-12-18T16:42:00;-5.90;99.90
37410;DHT22;23275;48.914;12.566;2022-12-18T16:44:28;-6.10;99.90
37410;DHT22;23275;48.914;12.566;2022-12-18T16:46:54;-6.10;99.90
37410;DHT22;23275;48.914;12.566;2022-12-18T16:49:19;-6.30;99.90
37410;DHT22;23275;48.914;12.566;2022-12-18T16:51:46;-6.30;99.90
37410;DHT22;23275;48.914;12.566;2022-12-18T16:54:12;-6.40;99.90
37410;DHT22;23275;48.914;12.566;2022-12-18T16:56:38;-6.50;99.90
37410;DHT22;23275;48.914;12.566;2022-12-18T16:59:04;-6.50;99.90
37410;DHT22;23275;48.914;12.566;2022-12-18T17:01:31;-6.50;99.90
37410;DHT22;23275;48.914;12.566;2022-12-18T17:04:00;-6.50;99.90
37410;DHT22;23275;48.914;12.566;2022-12-18T17:06:27;-6.60;99.90
37410;DHT22;23275;48.914;12.566;2022-12-18T17:08:57;-6.70;99.90
37410;DHT22;23275;48.914;12.566;2022-12-18T17:11:40;-6.70;99.90
37410;DHT22;23275;48.914;12.566;2022-12-18T17:14:14;-6.80;99.90
37410;DHT22;23275;48.914;12.566;2022-12-18T17:16:40;-6.80;99.90
37410;DHT22;23275;48.914;12.566;2022-12-18T17:19:06;-6.90;99.90